sensor_id;sensor_type;location;lat;lon;timestamp;pressure;altitude;pressure_sealevel;temperature;humidity
14041;BME280;7095;51.388;6.196;2022-11-09T00:01:37;54332.19;;;-145.32;100.00
14041;BME280;7095;51.388;6.196;2022-11-09T00:04:06;54338.16;;;-145.32;100.00
14041;BME280;7095;51.388;6.196;2022-11-09T00:06:35;54381.91;;;-145.32;100.00
14041;BME280;7095;51.388;6.196;2022-11-09T00:09:05;54366.00;;;-145.32;100.00
14041;BME280;7095;51.388;6.196;2022-11-09T00:11:37;54369.97;;;-145.32;100.00
14041;BME280;7095;51.388;6.196;2022-11-09T00:14:05;54409.75;;;-145.32;100.00
14041;BME280;7095;51.388;6.196;2022-11-09T00:16:34;54389.88;;;-145.32;100.00
14041;BME280;7095;51.388;6.196;2022-11-09T00:19:03;54413.72;;;-145.32;100.00
14041;BME280;7095;51.388;6.196;2022-11-09T00:21:33;54441.56;;;-145.32;100.00
14041;BME280;7095;51.388;6.196;2022-11-09T00:24:05;54457.47;;;-145.32;100.00
14041;BME280;7095;51.388;6.196;2022-11-09T00:26:34;54459.47;;;-145.32;100.00
14041;BME280;7095;51.388;6.196;2022-11-09T00:29:04;54499.25;;;-145.32;100.00
14041;BME280;7095;51.388;6.196;2022-11-09T00:31:33;54505.22;;;-145.32;100.00
14041;BME280;7095;51.388;6.196;2022-11-09T00:34:02;54535.03;;;-145.32;100.00
14041;BME280;7095;51.388;6.196;2022-11-09T00:36:32;54533.06;;;-145.32;100.00
14041;BME280;7095;51.388;6.196;2022-11-09T00:39:00;54570.84;;;-145.32;100.00
14041;BME280;7095;51.388;6.196;2022-11-09T00:41:31;54600.66;;;-145.32;100.00
14041;BME280;7095;51.388;6.196;2022-11-09T00:44:00;54604.66;;;-145.32;100.00
14041;BME280;7095;51.388;6.196;2022-11-09T00:46:30;54612.59;;;-145.32;100.00
14041;BME280;7095;51.388;6.196;2022-11-09T00:49:00;54650.38;;;-145.32;100.00
14041;BME280;7095;51.388;6.196;2022-11-09T00:51:29;54632.50;;;-145.32;100.00
14041;BME280;7095;51.388;6.196;2022-11-09T00:53:57;54704.09;;;-145.32;100.00
14041;BME280;7095;51.388;6.196;2022-11-09T00:56:27;54735.91;;;-145.32;100.00
14041;BME280;7095;51.388;6.196;2022-11-09T00:58:56;54759.78;;;-145.32;100.00
14041;BME280;7095;51.388;6.196;2022-11-09T01:01:25;54759.78;;;-145.32;100.00
14041;BME280;7095;51.388;6.196;2022-11-09T01:03:55;54799.53;;;-145.32;100.00
14041;BME280;7095;51.388;6.196;2022-11-09T01:06:25;54791.59;;;-145.32;100.00
14041;BME280;7095;51.388;6.196;2022-11-09T01:08:56;54823.41;;;-145.32;100.00
14041;BME280;7095;51.388;6.196;2022-11-09T01:11:25;54847.28;;;-145.32;100.00
14041;BME280;7095;51.388;6.196;2022-11-09T01:13:54;54871.16;;;-145.32;100.00
14041;BME280;7095;51.388;6.196;2022-11-09T01:16:23;54867.16;;;-145.32;100.00
14041;BME280;7095;51.388;6.196;2022-11-09T01:18:53;54891.03;;;-145.32;100.00
14041;BME280;7095;51.388;6.196;2022-11-09T01:21:25;54875.13;;;-145.32;100.00
14041;BME280;7095;51.388;6.196;2022-11-09T01:23:55;54877.09;;;-145.32;100.00
14041;BME280;7095;51.388;6.196;2022-11-09T01:26:26;54863.19;;;-145.32;100.00
14041;BME280;7095;51.388;6.196;2022-11-09T01:28:55;54875.13;;;-145.32;100.00
14041;BME280;7095;51.388;6.196;2022-11-09T01:31:24;54893.03;;;-145.32;100.00
14041;BME280;7095;51.388;6.196;2022-11-09T01:33:52;54871.16;;;-145.32;100.00
14041;BME280;7095;51.388;6.196;2022-11-09T01:36:22;54867.16;;;-145.32;100.00
14041;BME280;7095;51.388;6.196;2022-11-09T01:38:52;54926.84;;;-145.32;100.00
14041;BME280;7095;51.388;6.196;2022-11-09T01:41:22;54926.84;;;-145.32;100.00
14041;BME280;7095;51.388;6.196;2022-11-09T01:44:06;54918.88;;;-145.32;100.00
14041;BME280;7095;51.388;6.196;2022-11-09T01:46:43;54956.66;;;-145.32;100.00
14041;BME280;7095;51.388;6.196;2022-11-09T01:49:20;54922.84;;;-145.32;100.00
14041;BME280;7095;51.388;6.196;2022-11-09T01:51:53;54900.97;;;-145.32;100.00
14041;BME280;7095;51.388;6.196;2022-11-09T01:54:28;54902.97;;;-145.32;100.00
14041;BME280;7095;51.388;6.196;2022-11-09T01:57:00;54954.69;;;-145.32;100.00
14041;BME280;7095;51.388;6.196;2022-11-09T01:59:34;54958.66;;;-145.32;100.00
14041;BME280;7095;51.388;6.196;2022-11-09T02:02:04;54942.75;;;-145.32;100.00
14041;BME280;7095;51.388;6.196;2022-11-09T02:04:41;54972.56;;;-145.32;100.00
14041;BME280;7095;51.388;6.196;2022-11-09T02:07:11;54930.81;;;-145.32;100.00
14041;BME280;7095;51.388;6.196;2022-11-09T02:09:46;54954.69;;;-145.32;100.00
14041;BME280;7095;51.388;6.196;2022-11-09T02:12:18;54966.59;;;-145.32;100.00
14041;BME280;7095;51.388;6.196;2022-11-09T02:14:49;54974.56;;;-145.32;100.00
14041;BME280;7095;51.388;6.196;2022-11-09T02:17:20;54984.50;;;-145.32;100.00
14041;BME280;7095;51.388;6.196;2022-11-09T02:19:49;54990.47;;;-145.32;100.00
14041;BME280;7095;51.388;6.196;2022-11-09T02:22:20;55006.38;;;-145.32;100.00
14041;BME280;7095;51.388;6.196;2022-11-09T02:24:48;55014.34;;;-145.32;100.00
14041;BME280;7095;51.388;6.196;2022-11-09T02:27:23;55024.28;;;-145.32;100.00
14041;BME280;7095;51.388;6.196;2022-11-09T02:29:52;55044.19;;;-145.32;100.00
14041;BME280;7095;51.388;6.196;2022-11-09T02:32:25;55066.06;;;-145.32;100.00
14041;BME280;7095;51.388;6.196;2022-11-09T02:34:56;55068.03;;;-145.32;100.00
14041;BME280;7095;51.388;6.196;2022-11-09T02:37:30;54972.56;;;-145.32;100.00
14041;BME280;7095;51.388;6.196;2022-11-09T02:40:00;55052.13;;;-145.32;100.00
14041;BME280;7095;51.388;6.196;2022-11-09T02:42:30;55032.25;;;-145.32;100.00
14041;BME280;7095;51.388;6.196;2022-11-09T02:44:59;55070.03;;;-145.32;100.00
14041;BME280;7095;51.388;6.196;2022-11-09T02:47:29;55079.97;;;-145.32;100.00
14041;BME280;7095;51.388;6.196;2022-11-09T02:49:58;55115.78;;;-145.32;100.00
14041;BME280;7095;51.388;6.196;2022-11-09T02:52:28;55048.16;;;-145.32;100.00
14041;BME280;7095;51.388;6.196;2022-11-09T02:54:56;55056.13;;;-145.32;100.00
14041;BME280;7095;51.388;6.196;2022-11-09T02:57:25;54998.44;;;-145.32;100.00
14041;BME280;7095;51.388;6.196;2022-11-09T02:59:54;55024.28;;;-145.32;100.00
14041;BME280;7095;51.388;6.196;2022-11-09T03:02:23;55000.41;;;-145.32;100.00
14041;BME280;7095;51.388;6.196;2022-11-09T03:04:52;54982.53;;;-145.32;100.00
14041;BME280;7095;51.388;6.196;2022-11-09T03:07:20;54948.72;;;-145.32;100.00
14041;BME280;7095;51.388;6.196;2022-11-09T03:09:50;54924.84;;;-145.32;100.00
14041;BME280;7095;51.388;6.196;2022-11-09T03:12:22;54926.84;;;-145.32;100.00
14041;BME280;7095;51.388;6.196;2022-11-09T03:15:06;54908.94;;;-145.32;100.00
14041;BME280;7095;51.388;6.196;2022-11-09T03:17:39;54899.00;;;-145.32;100.00
14041;BME280;7095;51.388;6.196;2022-11-09T03:20:09;54930.81;;;-145.32;100.00
14041;BME280;7095;51.388;6.196;2022-11-09T03:22:38;54994.47;;;-145.32;100.00
14041;BME280;7095;51.388;6.196;2022-11-09T03:25:09;55018.31;;;-145.32;100.00
14041;BME280;7095;51.388;6.196;2022-11-09T03:27:38;54988.50;;;-145.32;100.00
14041;BME280;7095;51.388;6.196;2022-11-09T03:30:08;55004.41;;;-145.32;100.00
14041;BME280;7095;51.388;6.196;2022-11-09T03:32:38;55026.28;;;-145.32;100.00
14041;BME280;7095;51.388;6.196;2022-11-09T03:35:08;55056.13;;;-145.32;100.00
14041;BME280;7095;51.388;6.196;2022-11-09T03:37:39;55024.28;;;-145.32;100.00
14041;BME280;7095;51.388;6.196;2022-11-09T03:40:10;55034.22;;;-145.32;100.00
14041;BME280;7095;51.388;6.196;2022-11-09T03:42:43;55044.19;;;-145.32;100.00
14041;BME280;7095;51.388;6.196;2022-11-09T03:45:12;55002.41;;;-145.32;100.00
14041;BME280;7095;51.388;6.196;2022-11-09T03:47:41;54940.75;;;-145.32;100.00
14041;BME280;7095;51.388;6.196;2022-11-09T03:50:11;54920.88;;;-145.32;100.00
14041;BME280;7095;51.388;6.196;2022-11-09T03:52:43;54867.16;;;-145.32;100.00
14041;BME280;7095;51.388;6.196;2022-11-09T03:55:13;54871.16;;;-145.32;100.00
14041;BME280;7095;51.388;6.196;2022-11-09T03:57:43;54837.34;;;-145.32;100.00
14041;BME280;7095;51.388;6.196;2022-11-09T04:00:15;54839.31;;;-145.32;100.00
14041;BME280;7095;51.388;6.196;2022-11-09T04:02:46;54791.59;;;-145.32;100.00
14041;BME280;7095;51.388;6.196;2022-11-09T04:05:15;54769.72;;;-145.32;100.00
14041;BME280;7095;51.388;6.196;2022-11-09T04:07:48;54743.84;;;-145.32;100.00
14041;BME280;7095;51.388;6.196;2022-11-09T04:10:19;54712.03;;;-145.32;100.00
14041;BME280;7095;51.388;6.196;2022-11-09T04:12:48;54712.03;;;-145.32;100.00
14041;BME280;7095;51.388;6.196;2022-11-09T04:15:20;54725.97;;;-145.32;100.00
14041;BME280;7095;51.388;6.196;2022-11-09T04:17:54;54739.88;;;-145.32;100.00
14041;BME280;7095;51.388;6.196;2022-11-09T04:20:23;54823.41;;;-145.32;100.00
14041;BME280;7095;51.388;6.196;2022-11-09T04:22:53;54914.91;;;-145.32;100.00
14041;BME280;7095;51.388;6.196;2022-11-09T04:25:24;55050.16;;;-145.32;100.00
14041;BME280;7095;51.388;6.196;2022-11-09T04:27:54;55129.69;;;-145.32;100.00
14041;BME280;7095;51.388;6.196;2022-11-09T04:30:24;55215.22;;;-145.32;100.00
14041;BME280;7095;51.388;6.196;2022-11-09T04:32:54;55330.59;;;-145.32;100.00
14041;BME280;7095;51.388;6.196;2022-11-09T04:35:24;55344.53;;;-145.32;100.00
14041;BME280;7095;51.388;6.196;2022-11-09T04:37:53;55316.69;;;-145.32;100.00
14041;BME280;7095;51.388;6.196;2022-11-09T04:40:25;55386.28;;;-145.32;100.00
14041;BME280;7095;51.388;6.196;2022-11-09T04:42:54;55386.28;;;-145.32;100.00
14041;BME280;7095;51.388;6.196;2022-11-09T04:45:23;55428.06;;;-145.32;100.00
14041;BME280;7095;51.388;6.196;2022-11-09T04:47:56;55380.34;;;-145.32;100.00
14041;BME280;7095;51.388;6.196;2022-11-09T04:50:26;55428.06;;;-145.32;100.00
14041;BME280;7095;51.388;6.196;2022-11-09T04:52:54;55346.50;;;-145.32;100.00
14041;BME280;7095;51.388;6.196;2022-11-09T04:55:24;55324.63;;;-145.32;100.00
14041;BME280;7095;51.388;6.196;2022-11-09T04:57:53;55316.69;;;-145.32;100.00
14041;BME280;7095;51.388;6.196;2022-11-09T05:00:22;55253.03;;;-145.32;100.00
14041;BME280;7095;51.388;6.196;2022-11-09T05:02:50;55260.97;;;-145.32;100.00
14041;BME280;7095;51.388;6.196;2022-11-09T05:05:19;55272.91;;;-145.32;100.00
14041;BME280;7095;51.388;6.196;2022-11-09T05:07:47;55237.13;;;-145.32;100.00
14041;BME280;7095;51.388;6.196;2022-11-09T05:10:16;55225.19;;;-145.32;100.00
14041;BME280;7095;51.388;6.196;2022-11-09T05:12:45;55193.34;;;-145.32;100.00
14041;BME280;7095;51.388;6.196;2022-11-09T05:15:14;55155.56;;;-145.32;100.00
14041;BME280;7095;51.388;6.196;2022-11-09T05:17:43;55115.78;;;-145.32;100.00
14041;BME280;7095;51.388;6.196;2022-11-09T05:20:11;55131.69;;;-145.32;100.00
14041;BME280;7095;51.388;6.196;2022-11-09T05:22:40;55125.72;;;-145.32;100.00
14041;BME280;7095;51.388;6.196;2022-11-09T05:25:27;55121.75;;;-145.32;100.00
14041;BME280;7095;51.388;6.196;2022-11-09T05:27:56;55167.50;;;-145.32;100.00
14041;BME280;7095;51.388;6.196;2022-11-09T05:30:25;55171.47;;;-145.32;100.00
14041;BME280;7095;51.388;6.196;2022-11-09T05:32:54;55177.44;;;-145.32;100.00
14041;BME280;7095;51.388;6.196;2022-11-09T05:35:22;55133.69;;;-145.32;100.00
14041;BME280;7095;51.388;6.196;2022-11-09T05:37:51;55145.63;;;-145.32;100.00
14041;BME280;7095;51.388;6.196;2022-11-09T05:40:20;55215.22;;;-145.32;100.00
14041;BME280;7095;51.388;6.196;2022-11-09T05:42:48;55213.25;;;-145.32;100.00
14041;BME280;7095;51.388;6.196;2022-11-09T05:45:18;55185.41;;;-145.32;100.00
14041;BME280;7095;51.388;6.196;2022-11-09T05:48:07;55217.22;;;-145.32;100.00
14041;BME280;7095;51.388;6.196;2022-11-09T05:50:36;55276.91;;;-145.32;100.00
14041;BME280;7095;51.388;6.196;2022-11-09T05:53:21;55266.94;;;-145.32;100.00
14041;BME280;7095;51.388;6.196;2022-11-09T05:55:50;55280.88;;;-145.32;100.00
14041;BME280;7095;51.388;6.196;2022-11-09T05:58:18;55286.84;;;-145.32;100.00
14041;BME280;7095;51.388;6.196;2022-11-09T06:00:49;55394.25;;;-145.32;100.00
14041;BME280;7095;51.388;6.196;2022-11-09T06:03:17;55426.09;;;-145.32;100.00
14041;BME280;7095;51.388;6.196;2022-11-09T06:05:46;55436.03;;;-145.32;100.00
14041;BME280;7095;51.388;6.196;2022-11-09T06:08:15;55497.69;;;-145.32;100.00
14041;BME280;7095;51.388;6.196;2022-11-09T06:10:43;55529.53;;;-145.32;100.00
14041;BME280;7095;51.388;6.196;2022-11-09T06:13:12;55547.44;;;-145.32;100.00
14041;BME280;7095;51.388;6.196;2022-11-09T06:15:40;55571.28;;;-145.32;100.00
14041;BME280;7095;51.388;6.196;2022-11-09T06:18:10;55627.00;;;-145.32;100.00
14041;BME280;7095;51.388;6.196;2022-11-09T06:20:39;55724.47;;;-145.32;100.00
14041;BME280;7095;51.388;6.196;2022-11-09T06:23:07;55730.44;;;-145.32;100.00
14041;BME280;7095;51.388;6.196;2022-11-09T06:25:38;55784.16;;;-145.32;100.00
14041;BME280;7095;51.388;6.196;2022-11-09T06:28:06;55821.94;;;-145.32;100.00
14041;BME280;7095;51.388;6.196;2022-11-09T06:30:35;55917.44;;;-145.32;100.00
14041;BME280;7095;51.388;6.196;2022-11-09T06:33:03;55987.09;;;-145.32;100.00
14041;BME280;7095;51.388;6.196;2022-11-09T06:35:34;55985.09;;;-145.32;100.00
14041;BME280;7095;51.388;6.196;2022-11-09T06:38:03;56044.78;;;-145.32;100.00
14041;BME280;7095;51.388;6.196;2022-11-09T06:40:31;56197.97;;;-145.32;100.00
14041;BME280;7095;51.388;6.196;2022-11-09T06:43:00;56331.28;;;-145.32;100.00
14041;BME280;7095;51.388;6.196;2022-11-09T06:45:29;56426.78;;;-145.32;100.00
14041;BME280;7095;51.388;6.196;2022-11-09T06:47:58;56464.59;;;-145.32;100.00
14041;BME280;7095;51.388;6.196;2022-11-09T06:50:29;56556.13;;;-145.32;100.00
14041;BME280;7095;51.388;6.196;2022-11-09T06:53:01;56627.78;;;-145.32;100.00
14041;BME280;7095;51.388;6.196;2022-11-09T06:55:32;56715.31;;;-145.32;100.00
14041;BME280;7095;51.388;6.196;2022-11-09T06:58:05;56840.69;;;-145.32;100.00
14041;BME280;7095;51.388;6.196;2022-11-09T07:00:33;56932.22;;;-145.32;100.00
14041;BME280;7095;51.388;6.196;2022-11-09T07:03:02;57047.66;;;-145.32;100.00
14041;BME280;7095;51.388;6.196;2022-11-09T07:05:31;57107.38;;;-145.32;100.00
14041;BME280;7095;51.388;6.196;2022-11-09T07:08:01;57294.44;;;-145.32;100.00
14041;BME280;7095;51.388;6.196;2022-11-09T07:10:29;57298.44;;;-145.32;100.00
14041;BME280;7095;51.388;6.196;2022-11-09T07:12:58;57415.84;;;-145.32;100.00
14041;BME280;7095;51.388;6.196;2022-11-09T07:15:29;57636.78;;;-145.32;100.00
14041;BME280;7095;51.388;6.196;2022-11-09T07:17:58;57748.25;;;-145.32;100.00
14041;BME280;7095;51.388;6.196;2022-11-09T07:20:27;57823.91;;;-145.32;100.00
14041;BME280;7095;51.388;6.196;2022-11-09T07:22:56;57911.50;;;-145.32;100.00
14041;BME280;7095;51.388;6.196;2022-11-09T07:25:26;57947.31;;;-145.32;100.00
14041;BME280;7095;51.388;6.196;2022-11-09T07:28:01;58088.66;;;-145.32;100.00
14041;BME280;7095;51.388;6.196;2022-11-09T07:30:31;58164.31;;;-145.32;100.00
14041;BME280;7095;51.388;6.196;2022-11-09T07:32:59;58301.69;;;-145.32;100.00
14041;BME280;7095;51.388;6.196;2022-11-09T07:35:36;58437.06;;;-145.32;100.00
14041;BME280;7095;51.388;6.196;2022-11-09T07:38:05;58548.56;;;-145.32;100.00
14041;BME280;7095;51.388;6.196;2022-11-09T07:40:35;58560.50;;;-145.32;100.00
14041;BME280;7095;51.388;6.196;2022-11-09T07:43:04;58538.59;;;-145.32;100.00
14041;BME280;7095;51.388;6.196;2022-11-09T07:45:36;58660.06;;;-145.32;100.00
14041;BME280;7095;51.388;6.196;2022-11-09T07:48:08;58711.81;;;-145.32;100.00
14041;BME280;7095;51.388;6.196;2022-11-09T07:50:38;58660.06;;;-145.32;100.00
14041;BME280;7095;51.388;6.196;2022-11-09T07:53:09;58630.19;;;-145.32;100.00
14041;BME280;7095;51.388;6.196;2022-11-09T07:55:39;58620.25;;;-145.32;100.00
14041;BME280;7095;51.388;6.196;2022-11-09T07:58:11;58498.78;;;-145.32;100.00
14041;BME280;7095;51.388;6.196;2022-11-09T08:00:40;58514.72;;;-145.32;100.00
14041;BME280;7095;51.388;6.196;2022-11-09T08:03:10;58425.13;;;-145.32;100.00
14041;BME280;7095;51.388;6.196;2022-11-09T08:05:39;58437.06;;;-145.32;100.00
14041;BME280;7095;51.388;6.196;2022-11-09T08:08:10;58321.59;;;-145.32;100.00
14041;BME280;7095;51.388;6.196;2022-11-09T08:10:41;58241.97;;;-145.32;100.00
14041;BME280;7095;51.388;6.196;2022-11-09T08:13:12;58148.38;;;-145.32;100.00
14041;BME280;7095;51.388;6.196;2022-11-09T08:15:41;57869.69;;;-145.32;100.00
14041;BME280;7095;51.388;6.196;2022-11-09T08:18:12;57660.69;;;-145.32;100.00
14041;BME280;7095;51.388;6.196;2022-11-09T08:20:41;57477.56;;;-145.32;100.00
14041;BME280;7095;51.388;6.196;2022-11-09T08:23:10;57278.53;;;-145.32;100.00
14041;BME280;7095;51.388;6.196;2022-11-09T08:25:41;57037.72;;;-145.32;100.00
14041;BME280;7095;51.388;6.196;2022-11-09T08:28:10;56900.41;;;-145.32;100.00
14041;BME280;7095;51.388;6.196;2022-11-09T08:30:42;56717.31;;;-145.32;100.00
14041;BME280;7095;51.388;6.196;2022-11-09T08:33:11;56560.13;;;-145.32;100.00
14041;BME280;7095;51.388;6.196;2022-11-09T08:35:40;56442.72;;;-145.32;100.00
14041;BME280;7095;51.388;6.196;2022-11-09T08:38:09;56446.69;;;-145.32;100.00
14041;BME280;7095;51.388;6.196;2022-11-09T08:40:38;56367.09;;;-145.32;100.00
14041;BME280;7095;51.388;6.196;2022-11-09T08:43:09;56263.63;;;-145.32;100.00
14041;BME280;7095;51.388;6.196;2022-11-09T08:45:39;56028.84;;;-145.32;100.00
14041;BME280;7095;51.388;6.196;2022-11-09T08:48:09;55849.81;;;-145.32;100.00
14041;BME280;7095;51.388;6.196;2022-11-09T08:50:38;55790.13;;;-145.32;100.00
14041;BME280;7095;51.388;6.196;2022-11-09T08:53:09;55726.47;;;-145.32;100.00
14041;BME280;7095;51.388;6.196;2022-11-09T08:55:38;55531.50;;;-145.32;100.00
14041;BME280;7095;51.388;6.196;2022-11-09T08:58:08;55461.88;;;-145.32;100.00
14041;BME280;7095;51.388;6.196;2022-11-09T09:00:38;55432.06;;;-145.32;100.00
14041;BME280;7095;51.388;6.196;2022-11-09T09:03:07;55386.28;;;-145.32;100.00
14041;BME280;7095;51.388;6.196;2022-11-09T09:05:36;55352.47;;;-145.32;100.00
14041;BME280;7095;51.388;6.196;2022-11-09T09:08:05;55328.63;;;-145.32;100.00
14041;BME280;7095;51.388;6.196;2022-11-09T09:10:37;55296.78;;;-145.32;100.00
14041;BME280;7095;51.388;6.196;2022-11-09T09:13:08;55207.28;;;-145.32;100.00
14041;BME280;7095;51.388;6.196;2022-11-09T09:15:36;55113.78;;;-145.32;100.00
14041;BME280;7095;51.388;6.196;2022-11-09T09:18:05;55078.00;;;-145.32;100.00
14041;BME280;7095;51.388;6.196;2022-11-09T09:20:33;54972.56;;;-145.32;100.00
14041;BME280;7095;51.388;6.196;2022-11-09T09:23:02;54950.69;;;-145.32;100.00
14041;BME280;7095;51.388;6.196;2022-11-09T09:25:31;54966.59;;;-145.32;100.00
14041;BME280;7095;51.388;6.196;2022-11-09T09:27:59;54940.75;;;-145.32;100.00
14041;BME280;7095;51.388;6.196;2022-11-09T09:30:29;54837.34;;;-145.32;100.00
14041;BME280;7095;51.388;6.196;2022-11-09T09:32:58;54817.44;;;-145.32;100.00
14041;BME280;7095;51.388;6.196;2022-11-09T09:35:27;54727.94;;;-145.32;100.00
14041;BME280;7095;51.388;6.196;2022-11-09T09:37:56;54759.78;;;-145.32;100.00
14041;BME280;7095;51.388;6.196;2022-11-09T09:40:30;54743.84;;;-145.32;100.00
14041;BME280;7095;51.388;6.196;2022-11-09T09:43:00;54733.91;;;-145.32;100.00
14041;BME280;7095;51.388;6.196;2022-11-09T09:45:32;54704.09;;;-145.32;100.00
14041;BME280;7095;51.388;6.196;2022-11-09T09:48:04;54656.34;;;-145.32;100.00
14041;BME280;7095;51.388;6.196;2022-11-09T09:50:45;54630.50;;;-145.32;100.00
14041;BME280;7095;51.388;6.196;2022-11-09T09:53:22;54564.88;;;-145.32;100.00
14041;BME280;7095;51.388;6.196;2022-11-09T09:55:58;54527.09;;;-145.32;100.00
14041;BME280;7095;51.388;6.196;2022-11-09T09:58:31;54501.22;;;-145.32;100.00
14041;BME280;7095;51.388;6.196;2022-11-09T10:01:04;54483.34;;;-145.32;100.00
14041;BME280;7095;51.388;6.196;2022-11-09T10:03:33;54463.44;;;-145.32;100.00
14041;BME280;7095;51.388;6.196;2022-11-09T10:06:08;54350.09;;;-145.32;100.00
14041;BME280;7095;51.388;6.196;2022-11-09T10:08:48;54318.28;;;-145.32;100.00
14041;BME280;7095;51.388;6.196;2022-11-09T10:11:26;54296.41;;;-145.32;100.00
14041;BME280;7095;51.388;6.196;2022-11-09T10:14:27;54193.00;;;-145.32;100.00
14041;BME280;7095;51.388;6.196;2022-11-09T10:17:07;54169.16;;;-145.32;100.00
14041;BME280;7095;51.388;6.196;2022-11-09T10:19:55;54123.41;;;-145.32;100.00
14041;BME280;7095;51.388;6.196;2022-11-09T10:22:32;54047.84;;;-145.32;100.00
14041;BME280;7095;51.388;6.196;2022-11-09T10:25:09;54016.03;;;-145.32;100.00
14041;BME280;7095;51.388;6.196;2022-11-09T10:28:02;54006.09;;;-145.32;100.00
14041;BME280;7095;51.388;6.196;2022-11-09T10:30:34;54010.06;;;-145.32;100.00
14041;BME280;7095;51.388;6.196;2022-11-09T10:33:13;53984.22;;;-145.32;100.00
14041;BME280;7095;51.388;6.196;2022-11-09T10:35:45;53984.22;;;-145.32;100.00
14041;BME280;7095;51.388;6.196;2022-11-09T10:38:20;53992.19;;;-145.32;100.00
14041;BME280;7095;51.388;6.196;2022-11-09T10:41:14;53934.50;;;-145.32;100.00
14041;BME280;7095;51.388;6.196;2022-11-09T10:44:12;53920.59;;;-145.32;100.00
14041;BME280;7095;51.388;6.196;2022-11-09T10:47:08;53888.78;;;-145.32;100.00
14041;BME280;7095;51.388;6.196;2022-11-09T10:50:18;53880.84;;;-145.32;100.00
14041;BME280;7095;51.388;6.196;2022-11-09T10:53:12;53880.84;;;-145.32;100.00
14041;BME280;7095;51.388;6.196;2022-11-09T10:56:10;53854.97;;;-145.32;100.00
14041;BME280;7095;51.388;6.196;2022-11-09T10:59:30;53853.00;;;-145.32;100.00
14041;BME280;7095;51.388;6.196;2022-11-09T11:02:44;53785.41;;;-145.32;100.00
14041;BME280;7095;51.388;6.196;2022-11-09T11:05:33;53823.16;;;-145.32;100.00
14041;BME280;7095;51.388;6.196;2022-11-09T11:08:30;53851.00;;;-145.32;100.00
14041;BME280;7095;51.388;6.196;2022-11-09T11:11:23;53833.13;;;-145.32;100.00
14041;BME280;7095;51.388;6.196;2022-11-09T11:14:26;53825.16;;;-145.32;100.00
14041;BME280;7095;51.388;6.196;2022-11-09T11:17:22;53805.28;;;-145.32;100.00
14041;BME280;7095;51.388;6.196;2022-11-09T11:20:25;53761.53;;;-145.32;100.00
14041;BME280;7095;51.388;6.196;2022-11-09T11:23:17;53781.41;;;-145.32;100.00
14041;BME280;7095;51.388;6.196;2022-11-09T11:26:33;53743.66;;;-145.32;100.00
14041;BME280;7095;51.388;6.196;2022-11-09T11:29:42;53771.47;;;-145.32;100.00
14041;BME280;7095;51.388;6.196;2022-11-09T11:32:31;53749.59;;;-145.32;100.00
14041;BME280;7095;51.388;6.196;2022-11-09T11:35:24;53737.69;;;-145.32;100.00
14041;BME280;7095;51.388;6.196;2022-11-09T11:38:21;53733.69;;;-145.32;100.00
14041;BME280;7095;51.388;6.196;2022-11-09T11:41:30;53759.56;;;-145.32;100.00
14041;BME280;7095;51.388;6.196;2022-11-09T11:44:33;53719.78;;;-145.32;100.00
14041;BME280;7095;51.388;6.196;2022-11-09T11:47:24;53735.69;;;-145.32;100.00
14041;BME280;7095;51.388;6.196;2022-11-09T11:50:27;53709.84;;;-145.32;100.00
14041;BME280;7095;51.388;6.196;2022-11-09T11:53:24;53693.94;;;-145.32;100.00
14041;BME280;7095;51.388;6.196;2022-11-09T11:56:20;53727.75;;;-145.32;100.00
14041;BME280;7095;51.388;6.196;2022-11-09T12:02:44;53707.84;;;-145.32;100.00
14041;BME280;7095;51.388;6.196;2022-11-09T12:05:46;53701.88;;;-145.32;100.00
14041;BME280;7095;51.388;6.196;2022-11-09T12:08:56;53725.75;;;-145.32;100.00
14041;BME280;7095;51.388;6.196;2022-11-09T12:11:55;53689.97;;;-145.32;100.00
14041;BME280;7095;51.388;6.196;2022-11-09T12:14:54;53731.72;;;-145.32;100.00
14041;BME280;7095;51.388;6.196;2022-11-09T12:17:53;53713.81;;;-145.32;100.00
14041;BME280;7095;51.388;6.196;2022-11-09T12:20:52;53711.84;;;-145.32;100.00
14041;BME280;7095;51.388;6.196;2022-11-09T12:24:04;53737.69;;;-145.32;100.00
14041;BME280;7095;51.388;6.196;2022-11-09T12:27:07;53713.81;;;-145.32;100.00
14041;BME280;7095;51.388;6.196;2022-11-09T12:30:20;53703.88;;;-145.32;100.00
14041;BME280;7095;51.388;6.196;2022-11-09T12:33:12;53749.59;;;-145.32;100.00
14041;BME280;7095;51.388;6.196;2022-11-09T12:36:07;53693.94;;;-145.32;100.00
14041;BME280;7095;51.388;6.196;2022-11-09T12:39:04;53691.94;;;-145.32;100.00
14041;BME280;7095;51.388;6.196;2022-11-09T12:42:00;53648.22;;;-145.32;100.00
14041;BME280;7095;51.388;6.196;2022-11-09T12:45:21;53693.94;;;-145.32;100.00
14041;BME280;7095;51.388;6.196;2022-11-09T12:48:20;53709.84;;;-145.32;100.00
14041;BME280;7095;51.388;6.196;2022-11-09T12:51:08;53701.88;;;-145.32;100.00
14041;BME280;7095;51.388;6.196;2022-11-09T12:53:56;53693.94;;;-145.32;100.00
14041;BME280;7095;51.388;6.196;2022-11-09T12:56:51;53678.03;;;-145.32;100.00
14041;BME280;7095;51.388;6.196;2022-11-09T12:59:46;53678.03;;;-145.32;100.00
14041;BME280;7095;51.388;6.196;2022-11-09T13:02:37;53709.84;;;-145.32;100.00
14041;BME280;7095;51.388;6.196;2022-11-09T13:05:29;53707.84;;;-145.32;100.00
14041;BME280;7095;51.388;6.196;2022-11-09T13:08:21;53727.75;;;-145.32;100.00
14041;BME280;7095;51.388;6.196;2022-11-09T13:11:18;53713.81;;;-145.32;100.00
14041;BME280;7095;51.388;6.196;2022-11-09T13:14:34;53737.69;;;-145.32;100.00
14041;BME280;7095;51.388;6.196;2022-11-09T13:17:58;53686.00;;;-145.32;100.00
14041;BME280;7095;51.388;6.196;2022-11-09T13:20:47;53709.84;;;-145.32;100.00
14041;BME280;7095;51.388;6.196;2022-11-09T13:23:43;53717.78;;;-145.32;100.00
14041;BME280;7095;51.388;6.196;2022-11-09T13:26:57;53705.88;;;-145.32;100.00
14041;BME280;7095;51.388;6.196;2022-11-09T13:29:49;53699.91;;;-145.32;100.00